Varna, Bulgaria
Current Conditions -  °F | °C
As of 2:30 AM on Wednesday 26 Nov 2014 (Local Time) from LBWN Reporting Station
Overcast Overcast  
Wind Chill: -6°   Ceiling: 3200
Heat Index:   Visibility: 6mi
Dew Point: -2°   Wind: 18mph
Humidity: 87%   Direction: 360°N
Pressure: 30.27"   Gusts: NA
Location:  43.21°N, 27.9°E
Report Text: LBWN 252330Z 36008MPS 9999 OVC032 00/M02 Q1025 NOSIG
Loading
Personal Weather Stations






























Interactive Weather Map New forecast layout! Learn more

10-Day Weather Forecast

Advertisements
Track Severe Weather on mobile